createdAt,value
2019-01-18T00:01:07.145Z,1.97
2019-01-18T00:03:36.642Z,2.33
2019-01-18T00:06:06.151Z,1.40
2019-01-18T00:08:35.621Z,3.20
2019-01-18T00:11:05.167Z,1.20
2019-01-18T00:13:34.816Z,1.57
2019-01-18T00:16:04.407Z,2.53
2019-01-18T00:18:33.885Z,3.90
2019-01-18T00:21:03.455Z,2.40
2019-01-18T00:23:32.920Z,2.17
2019-01-18T00:26:02.382Z,1.80
2019-01-18T00:28:31.859Z,2.20
2019-01-18T00:31:01.319Z,2.23
2019-01-18T00:33:30.778Z,2.33
2019-01-18T00:36:00.228Z,3.83
2019-01-18T00:38:29.695Z,5.17
2019-01-18T00:40:59.161Z,3.87
2019-01-18T00:43:28.673Z,1.83
2019-01-18T00:45:58.143Z,1.57
2019-01-18T00:48:27.623Z,2.83
2019-01-18T00:50:57.081Z,2.07
2019-01-18T00:53:26.529Z,2.27
2019-01-18T00:55:56.014Z,1.30
2019-01-18T00:58:25.466Z,3.67
2019-01-18T01:00:54.975Z,3.57
2019-01-18T01:03:24.634Z,1.60
2019-01-18T01:05:54.230Z,1.53
2019-01-18T01:08:23.701Z,1.03
2019-01-18T01:10:53.243Z,0.70
2019-01-18T01:13:22.794Z,1.63
2019-01-18T01:15:52.398Z,1.83
2019-01-18T01:18:21.881Z,1.33
2019-01-18T01:20:51.355Z,1.17
2019-01-18T01:23:20.833Z,2.03
2019-01-18T01:25:50.309Z,1.30
2019-01-18T01:28:19.776Z,0.97
2019-01-18T01:30:49.233Z,0.93
2019-01-18T01:33:18.691Z,0.60
2019-01-18T01:35:48.243Z,0.63
2019-01-18T01:38:17.701Z,0.73
2019-01-18T01:40:47.170Z,2.10
2019-01-18T01:43:16.640Z,0.50
2019-01-18T01:45:46.184Z,0.63
2019-01-18T01:48:15.637Z,1.10
2019-01-18T01:50:45.133Z,0.77
2019-01-18T01:53:14.599Z,0.80
2019-01-18T01:55:44.054Z,1.47
2019-01-18T01:58:13.495Z,1.00
2019-01-18T02:00:43.138Z,1.47
2019-01-18T02:03:12.596Z,1.13
2019-01-18T02:05:42.108Z,1.07
2019-01-18T02:08:11.741Z,1.43
2019-01-18T02:10:41.198Z,2.17
2019-01-18T02:13:10.663Z,0.87
2019-01-18T02:15:40.128Z,1.30
2019-01-18T02:18:09.599Z,1.13
2019-01-18T02:20:39.140Z,1.20
2019-01-18T02:23:08.674Z,1.00
2019-01-18T02:25:38.136Z,1.30
2019-01-18T02:28:07.605Z,1.77
2019-01-18T02:30:37.119Z,1.50
2019-01-18T02:33:06.560Z,2.57
2019-01-18T02:35:36.013Z,1.33
2019-01-18T02:38:05.672Z,2.10
2019-01-18T02:40:35.138Z,1.47
2019-01-18T02:43:04.592Z,2.83
2019-01-18T02:45:34.068Z,2.80
2019-01-18T02:48:03.599Z,1.80
2019-01-18T02:50:33.116Z,1.70
2019-01-18T02:53:02.549Z,3.00
2019-01-18T02:55:32.021Z,1.60
2019-01-18T02:58:01.488Z,2.43
2019-01-18T03:00:30.955Z,2.33
2019-01-18T03:03:00.456Z,2.80
2019-01-18T03:05:30.106Z,1.73
2019-01-18T03:07:59.555Z,2.10
2019-01-18T03:10:31.333Z,1.97
2019-01-18T03:13:00.813Z,2.73
2019-01-18T03:15:30.290Z,2.00
2019-01-18T03:17:59.727Z,2.73
2019-01-18T03:20:29.262Z,1.93
2019-01-18T03:22:58.729Z,2.60
2019-01-18T03:25:28.539Z,2.43
2019-01-18T03:27:58.029Z,2.43
2019-01-18T03:30:27.495Z,2.13
2019-01-18T03:32:56.952Z,1.93
2019-01-18T03:35:26.833Z,1.90
2019-01-18T03:37:56.266Z,1.90
2019-01-18T03:40:25.939Z,2.80
2019-01-18T03:42:55.397Z,3.17
2019-01-18T03:45:24.935Z,1.73
2019-01-18T03:47:54.462Z,2.23
2019-01-18T03:50:26.040Z,2.00
2019-01-18T03:52:55.668Z,3.00
2019-01-18T03:55:25.309Z,2.53
2019-01-18T03:57:54.753Z,2.27
2019-01-18T04:00:27.361Z,2.53
2019-01-18T04:02:56.983Z,2.23
2019-01-18T04:05:26.576Z,2.33
2019-01-18T04:07:56.123Z,2.60
2019-01-18T04:10:25.684Z,3.00
2019-01-18T04:12:55.395Z,2.63
2019-01-18T04:15:25.370Z,3.83
2019-01-18T04:17:54.903Z,2.67
2019-01-18T04:20:24.611Z,3.90
2019-01-18T04:22:54.157Z,2.73
2019-01-18T04:25:25.292Z,2.10
2019-01-18T04:27:54.759Z,3.10
2019-01-18T04:30:24.741Z,2.50
2019-01-18T04:32:54.212Z,4.00
2019-01-18T04:35:23.660Z,3.30
2019-01-18T04:37:53.138Z,3.17
2019-01-18T04:40:29.510Z,3.77
2019-01-18T04:42:59.147Z,4.43
2019-01-18T04:45:28.596Z,2.53
2019-01-18T04:47:58.081Z,2.97
2019-01-18T04:50:29.406Z,2.60
2019-01-18T04:52:58.972Z,2.87
2019-01-18T04:55:28.415Z,2.17
2019-01-18T04:57:57.899Z,3.33
2019-01-18T05:00:30.566Z,3.20
2019-01-18T05:03:00.112Z,4.57
2019-01-18T05:05:29.654Z,5.13
2019-01-18T05:07:59.125Z,7.40
2019-01-18T05:10:29.933Z,3.13
2019-01-18T05:12:59.471Z,2.30
2019-01-18T05:15:32.194Z,2.57
2019-01-18T05:18:01.671Z,4.20
2019-01-18T05:20:31.195Z,3.33
2019-01-18T05:23:00.658Z,3.03
2019-01-18T05:25:30.119Z,4.23
2019-01-18T05:27:59.579Z,2.17
2019-01-18T05:30:30.649Z,3.50
2019-01-18T05:33:00.123Z,5.93
2019-01-18T05:35:29.746Z,3.10
2019-01-18T05:37:59.472Z,3.00
2019-01-18T05:40:28.971Z,4.93
2019-01-18T05:42:58.485Z,3.37
2019-01-18T05:45:27.971Z,4.20
2019-01-18T05:47:57.453Z,2.27
2019-01-18T05:50:29.009Z,3.43
2019-01-18T05:53:00.568Z,3.23
2019-01-18T05:55:30.025Z,3.37
2019-01-18T05:57:59.588Z,5.90
2019-01-18T06:00:41.133Z,2.50
2019-01-18T06:03:10.624Z,3.80
2019-01-18T06:05:41.781Z,4.60
2019-01-18T06:08:11.386Z,4.40
2019-01-18T06:10:41.015Z,3.77
2019-01-18T06:13:10.550Z,3.07
2019-01-18T06:15:40.614Z,3.67
2019-01-18T06:18:10.258Z,2.50
2019-01-18T06:20:39.777Z,3.43
2019-01-18T06:23:09.263Z,3.17
2019-01-18T06:25:38.782Z,3.30
2019-01-18T06:28:08.330Z,3.43
2019-01-18T06:30:37.799Z,3.37
2019-01-18T06:33:07.271Z,3.47
2019-01-18T06:35:36.720Z,3.27
2019-01-18T06:38:06.427Z,3.00
2019-01-18T06:40:35.935Z,4.13
2019-01-18T06:43:05.547Z,3.90
2019-01-18T06:45:35.005Z,6.10
2019-01-18T06:48:04.566Z,4.27
2019-01-18T06:50:33.996Z,3.33
2019-01-18T06:53:03.483Z,5.13
2019-01-18T06:55:32.934Z,4.07
2019-01-18T06:58:02.439Z,4.23
2019-01-18T07:00:32.521Z,3.10
2019-01-18T07:03:02.128Z,3.07
2019-01-18T07:05:31.650Z,3.33
2019-01-18T07:08:01.315Z,3.53
2019-01-18T07:10:30.775Z,4.40
2019-01-18T07:13:00.293Z,4.93
2019-01-18T07:15:29.751Z,4.87
2019-01-18T07:17:59.219Z,3.27
2019-01-18T07:20:28.706Z,6.00
2019-01-18T07:22:58.190Z,3.57
2019-01-18T07:25:30.870Z,4.90
2019-01-18T07:28:00.353Z,4.60
2019-01-18T07:30:38.291Z,2.63
2019-01-18T07:33:08.790Z,5.30
2019-01-18T07:35:38.284Z,3.33
2019-01-18T07:38:07.774Z,5.20
2019-01-18T07:40:37.259Z,3.70
2019-01-18T07:43:06.924Z,3.23
2019-01-18T07:45:36.626Z,2.83
2019-01-18T07:48:06.281Z,5.10
2019-01-18T07:50:35.760Z,3.33
2019-01-18T07:53:05.606Z,5.13
2019-01-18T07:55:35.158Z,4.50
2019-01-18T07:58:04.768Z,6.97
2019-01-18T08:00:34.210Z,3.97
2019-01-18T08:03:03.829Z,6.07
2019-01-18T08:05:33.300Z,2.93
2019-01-18T08:08:03.241Z,5.47
2019-01-18T08:10:32.832Z,3.37
2019-01-18T08:13:02.326Z,4.80
2019-01-18T08:15:31.785Z,3.80
2019-01-18T08:18:01.238Z,4.50
2019-01-18T08:20:30.956Z,10.53
2019-01-18T08:23:00.401Z,4.87
2019-01-18T08:25:29.943Z,4.83
2019-01-18T08:27:59.561Z,4.57
2019-01-18T08:30:30.588Z,3.43
2019-01-18T08:33:00.118Z,4.87
2019-01-18T08:35:29.931Z,3.40
2019-01-18T08:37:59.452Z,4.73
2019-01-18T08:40:35.247Z,4.80
2019-01-18T08:43:06.597Z,3.27
2019-01-18T08:45:47.061Z,9.17
2019-01-18T08:48:16.517Z,3.03
2019-01-18T08:50:46.123Z,3.27
2019-01-18T08:53:15.620Z,5.87
2019-01-18T08:55:45.098Z,3.80
2019-01-18T08:58:14.557Z,5.77
2019-01-18T09:00:44.140Z,4.53
2019-01-18T09:03:13.603Z,7.07
2019-01-18T09:05:43.139Z,3.63
2019-01-18T09:08:12.674Z,3.00
2019-01-18T09:10:42.308Z,5.17
2019-01-18T09:13:11.796Z,4.20
2019-01-18T09:15:41.337Z,3.77
2019-01-18T09:18:10.832Z,7.23
2019-01-18T09:20:40.409Z,4.97
2019-01-18T09:23:09.896Z,2.80
2019-01-18T09:25:39.396Z,4.40
2019-01-18T09:28:08.851Z,3.17
2019-01-18T09:30:38.375Z,3.97
2019-01-18T09:33:08.047Z,3.23
2019-01-18T09:35:37.514Z,3.17
2019-01-18T09:38:08.982Z,4.47
2019-01-18T09:40:38.465Z,4.53
2019-01-18T09:43:08.057Z,5.03
2019-01-18T09:45:37.520Z,4.17
2019-01-18T09:48:07.593Z,4.57
2019-01-18T09:50:37.170Z,3.97
2019-01-18T09:53:08.427Z,4.13
2019-01-18T09:55:37.966Z,4.70
2019-01-18T09:58:07.421Z,2.60
2019-01-18T10:00:38.840Z,4.43
2019-01-18T10:03:08.369Z,4.70
2019-01-18T10:05:37.866Z,3.97
2019-01-18T10:08:07.356Z,3.50
2019-01-18T10:10:36.892Z,2.70
2019-01-18T10:13:06.350Z,4.57
2019-01-18T10:15:41.644Z,9.60
2019-01-18T10:18:11.169Z,5.13
2019-01-18T10:20:40.655Z,6.30
2019-01-18T10:23:10.149Z,4.50
2019-01-18T10:25:39.660Z,4.20
2019-01-18T10:28:09.371Z,3.93
2019-01-18T10:30:38.829Z,3.73
2019-01-18T10:33:08.448Z,5.80
2019-01-18T10:35:37.922Z,4.03
2019-01-18T10:38:07.918Z,3.63
2019-01-18T10:40:37.443Z,3.87
2019-01-18T10:43:06.976Z,3.23
2019-01-18T10:45:36.462Z,5.77
2019-01-18T10:48:06.038Z,5.47
2019-01-18T10:50:35.656Z,6.10
2019-01-18T10:53:05.376Z,7.37
2019-01-18T10:55:34.868Z,3.00
2019-01-18T10:58:04.966Z,4.67
2019-01-18T11:00:35.156Z,3.90
2019-01-18T11:03:04.855Z,4.17
2019-01-18T11:05:34.412Z,3.73
2019-01-18T11:08:03.983Z,3.90
2019-01-18T11:10:33.540Z,4.80
2019-01-18T11:13:02.996Z,3.80
2019-01-18T11:15:35.999Z,7.27
2019-01-18T11:18:03.894Z,5.77
2019-01-18T11:20:51.117Z,5.33
2019-01-18T11:23:20.625Z,4.47
2019-01-18T11:25:50.246Z,3.20
2019-01-18T11:28:19.743Z,3.53
2019-01-18T11:30:49.275Z,3.80
2019-01-18T11:33:18.779Z,5.13
2019-01-18T11:35:48.377Z,4.80
2019-01-18T11:38:18.059Z,4.97
2019-01-18T11:40:47.549Z,4.93
2019-01-18T11:43:17.039Z,5.37
2019-01-18T11:45:46.550Z,5.20
2019-01-18T11:48:16.070Z,3.80
2019-01-18T11:50:45.533Z,6.33
2019-01-18T11:53:15.024Z,4.67
2019-01-18T11:55:44.493Z,5.63
2019-01-18T11:58:13.990Z,4.17
2019-01-18T12:00:43.466Z,3.37
2019-01-18T12:03:12.930Z,4.30
2019-01-18T12:05:42.505Z,3.93
2019-01-18T12:08:11.958Z,2.80
2019-01-18T12:10:41.516Z,5.80
2019-01-18T12:13:11.077Z,5.37
2019-01-18T12:15:40.539Z,2.97
2019-01-18T12:18:10.001Z,4.47
2019-01-18T12:20:39.468Z,2.80
2019-01-18T12:23:09.120Z,4.23
2019-01-18T12:25:38.562Z,3.67
2019-01-18T12:28:08.014Z,4.73
2019-01-18T12:30:37.571Z,3.50
2019-01-18T12:33:07.086Z,3.90
2019-01-18T12:35:36.672Z,3.60
2019-01-18T12:38:06.426Z,4.53
2019-01-18T12:40:35.882Z,5.50
2019-01-18T12:43:05.334Z,3.53
2019-01-18T12:45:34.822Z,7.80
2019-01-18T12:48:05.546Z,3.33
2019-01-18T12:50:36.227Z,2.70
2019-01-18T12:53:05.828Z,4.73
2019-01-18T12:55:35.354Z,2.13
2019-01-18T12:58:05.266Z,2.83
2019-01-18T13:00:34.839Z,3.80
2019-01-18T13:03:04.429Z,3.07
2019-01-18T13:05:38.734Z,2.53
2019-01-18T13:08:08.244Z,2.53
2019-01-18T13:10:37.848Z,3.63
2019-01-18T13:13:07.740Z,4.67
2019-01-18T13:15:41.936Z,2.70
2019-01-18T13:18:11.660Z,3.77
2019-01-18T13:20:41.269Z,2.77
2019-01-18T13:23:10.775Z,3.07
2019-01-18T13:25:40.278Z,3.40
2019-01-18T13:28:09.751Z,3.03
2019-01-18T13:30:39.263Z,2.67
2019-01-18T13:33:08.859Z,7.00
2019-01-18T13:35:38.317Z,3.00
2019-01-18T13:38:07.852Z,4.47
2019-01-18T13:40:37.346Z,3.57
2019-01-18T13:43:06.847Z,3.03
2019-01-18T13:45:36.372Z,2.63
2019-01-18T13:48:06.210Z,3.93
2019-01-18T13:50:35.677Z,3.77
2019-01-18T13:53:06.084Z,3.17
2019-01-18T13:55:35.633Z,2.73
2019-01-18T13:58:05.248Z,4.20
2019-01-18T14:00:34.695Z,4.20
2019-01-18T14:03:04.354Z,4.33
2019-01-18T14:05:33.811Z,3.70
2019-01-18T14:08:03.290Z,6.10
2019-01-18T14:10:35.844Z,6.33
2019-01-18T14:13:05.422Z,4.97
2019-01-18T14:15:34.874Z,4.87
2019-01-18T14:18:04.423Z,3.87
2019-01-18T14:20:33.907Z,4.10
2019-01-18T14:23:03.405Z,4.27
2019-01-18T14:25:32.896Z,4.63
2019-01-18T14:28:03.218Z,5.37
2019-01-18T14:30:35.779Z,4.33
2019-01-18T14:33:03.946Z,3.90
2019-01-18T14:35:33.408Z,4.30
2019-01-18T14:38:02.898Z,7.30
2019-01-18T14:40:32.338Z,5.83
2019-01-18T14:43:01.859Z,5.97
2019-01-18T14:45:41.113Z,4.93
2019-01-18T14:48:10.735Z,5.30
2019-01-18T14:50:40.188Z,6.73
2019-01-18T14:53:09.660Z,3.77
2019-01-18T14:55:39.199Z,5.70
2019-01-18T14:58:09.683Z,9.30
2019-01-18T15:00:39.923Z,5.03
2019-01-18T15:03:09.560Z,5.77
2019-01-18T15:05:39.139Z,6.20
2019-01-18T15:08:08.749Z,14.07
2019-01-18T15:10:38.247Z,12.50
2019-01-18T15:13:11.634Z,8.87
2019-01-18T15:15:41.154Z,6.43
2019-01-18T15:18:10.739Z,5.63
2019-01-18T15:20:40.331Z,7.13
2019-01-18T15:23:09.974Z,7.53
2019-01-18T15:25:39.481Z,12.90
2019-01-18T15:28:09.046Z,17.10
2019-01-18T15:30:38.497Z,14.93
2019-01-18T15:33:09.361Z,20.47
2019-01-18T15:35:39.254Z,25.53
2019-01-18T15:38:08.859Z,17.97
2019-01-18T15:40:42.405Z,13.97
2019-01-18T15:43:13.181Z,12.40
2019-01-18T15:45:42.646Z,9.30
2019-01-18T15:48:12.153Z,7.27
2019-01-18T15:50:41.761Z,8.33
2019-01-18T15:53:11.363Z,6.67
2019-01-18T15:55:40.965Z,5.97
2019-01-18T15:58:10.523Z,4.93
2019-01-18T16:00:42.765Z,6.13
2019-01-18T16:03:16.100Z,6.10
2019-01-18T16:05:43.674Z,7.03
2019-01-18T16:08:13.216Z,4.77
2019-01-18T16:10:42.676Z,10.43
2019-01-18T16:13:12.214Z,5.93
2019-01-18T16:16:00.590Z,5.60
2019-01-18T16:18:29.381Z,6.77
2019-01-18T16:20:58.864Z,6.63
2019-01-18T16:23:28.368Z,6.73
2019-01-18T16:25:57.894Z,7.83
2019-01-18T16:28:27.380Z,6.47
2019-01-18T16:30:56.903Z,8.00
2019-01-18T16:33:26.692Z,6.37
2019-01-18T16:35:56.232Z,10.53
2019-01-18T16:38:25.726Z,13.40
2019-01-18T16:40:55.179Z,17.90
2019-01-18T16:43:31.467Z,11.17
2019-01-18T16:46:00.977Z,12.00
2019-01-18T16:48:30.504Z,9.57
2019-01-18T16:51:00.000Z,11.57
2019-01-18T16:53:29.497Z,10.10
2019-01-18T16:55:59.073Z,12.13
2019-01-18T16:58:28.612Z,9.00
2019-01-18T17:01:01.563Z,11.70
2019-01-18T17:03:31.436Z,8.90
2019-01-18T17:06:00.967Z,8.53
2019-01-18T17:08:30.501Z,9.03
2019-01-18T17:11:00.036Z,10.03
2019-01-18T17:13:29.590Z,8.40
2019-01-18T17:15:59.116Z,9.43
2019-01-18T17:18:28.732Z,7.87
2019-01-18T17:20:58.239Z,7.67
2019-01-18T17:23:27.706Z,7.57
2019-01-18T17:25:57.279Z,9.40
2019-01-18T17:28:26.744Z,10.90
2019-01-18T17:30:56.238Z,6.80
2019-01-18T17:33:25.684Z,37.10
2019-01-18T17:36:02.321Z,40.73
2019-01-18T17:38:51.139Z,23.47
2019-01-18T17:41:53.807Z,24.73
2019-01-18T17:44:54.689Z,21.33
2019-01-18T17:47:47.954Z,17.33
2019-01-18T17:50:44.309Z,21.07
2019-01-18T17:53:46.774Z,23.70
2019-01-18T17:56:38.946Z,27.67
2019-01-18T17:59:16.168Z,37.20
2019-01-18T18:02:21.625Z,58.90
2019-01-18T18:05:22.625Z,29.37
2019-01-18T18:08:20.710Z,28.93
2019-01-18T18:11:12.618Z,12.97
2019-01-18T18:14:13.632Z,12.80
2019-01-18T18:16:53.905Z,20.77
2019-01-18T18:19:53.406Z,22.70
2019-01-18T18:22:43.695Z,24.47
2019-01-18T18:25:46.467Z,32.80
2019-01-18T18:28:47.544Z,23.03
2019-01-18T18:31:39.453Z,68.70
2019-01-18T18:34:26.763Z,61.67
2019-01-18T18:37:15.888Z,42.37
2019-01-18T18:39:59.978Z,27.07
2019-01-18T18:42:37.704Z,14.93
2019-01-18T18:45:29.636Z,11.00
2019-01-18T18:48:33.895Z,48.17
2019-01-18T18:51:16.870Z,15.97
2019-01-18T18:54:03.425Z,31.53
2019-01-18T18:57:12.272Z,16.20
2019-01-18T19:00:01.896Z,14.50
2019-01-18T19:03:26.733Z,17.20
2019-01-18T19:06:48.140Z,10.43
2019-01-18T19:09:49.711Z,9.97
2019-01-18T19:12:44.463Z,10.37
2019-01-18T19:15:55.967Z,8.33
2019-01-18T19:18:39.144Z,9.97
2019-01-18T19:21:37.763Z,7.93
2019-01-18T19:24:17.699Z,9.00
2019-01-18T19:27:39.776Z,11.77
2019-01-18T19:30:33.305Z,8.80
2019-01-18T19:33:19.349Z,8.20
2019-01-18T19:36:02.538Z,8.90
2019-01-18T19:38:42.486Z,6.53
2019-01-18T19:41:35.917Z,6.67
2019-01-18T19:44:42.786Z,6.47
2019-01-18T19:47:37.073Z,7.73
2019-01-18T19:50:36.470Z,7.30
2019-01-18T19:53:43.747Z,10.10
2019-01-18T19:56:23.146Z,7.73
2019-01-18T19:59:30.180Z,9.07
2019-01-18T20:02:17.847Z,11.40
2019-01-18T20:05:23.789Z,8.33
2019-01-18T20:08:03.782Z,8.57
2019-01-18T20:10:46.831Z,8.73
2019-01-18T20:13:48.360Z,10.63
2019-01-18T20:16:49.151Z,10.03
2019-01-18T20:19:39.476Z,12.30
2019-01-18T20:22:25.594Z,9.87
2019-01-18T20:25:34.584Z,10.40
2019-01-18T20:28:35.659Z,11.40
2019-01-18T20:31:15.799Z,10.53
2019-01-18T20:34:22.958Z,13.27
2019-01-18T20:37:20.996Z,12.17
2019-01-18T20:39:57.919Z,8.87
2019-01-18T20:42:52.816Z,10.97
2019-01-18T20:45:35.808Z,8.47
2019-01-18T20:48:22.263Z,7.90
2019-01-18T20:51:07.617Z,10.30
2019-01-18T20:54:17.418Z,11.50
2019-01-18T20:56:59.700Z,8.57
2019-01-18T20:59:45.875Z,8.97
2019-01-18T21:02:42.710Z,10.00
2019-01-18T21:05:19.704Z,11.37
2019-01-18T21:07:59.869Z,11.53
2019-01-18T21:10:39.896Z,11.23
2019-01-18T21:13:16.617Z,11.53
2019-01-18T21:16:10.394Z,11.30
2019-01-18T21:18:52.532Z,10.93
2019-01-18T21:21:45.980Z,10.27
2019-01-18T21:24:40.940Z,12.30
2019-01-18T21:27:38.864Z,10.70
2019-01-18T21:30:33.893Z,11.53
2019-01-18T21:33:27.682Z,11.93
2019-01-18T21:36:23.350Z,11.10
2019-01-18T21:39:04.066Z,10.67
2019-01-18T21:42:03.425Z,12.20
2019-01-18T21:44:43.621Z,10.37
2019-01-18T21:47:43.056Z,13.53
2019-01-18T21:50:25.900Z,12.27
2019-01-18T21:53:11.866Z,12.93
2019-01-18T21:55:55.346Z,11.27
2019-01-18T21:58:43.375Z,11.80
2019-01-18T22:01:24.848Z,11.53
2019-01-18T22:04:28.767Z,12.90
2019-01-18T22:07:17.473Z,11.30
2019-01-18T22:10:09.077Z,9.93
2019-01-18T22:13:16.385Z,10.90
2019-01-18T22:15:53.240Z,11.33
2019-01-18T22:18:36.465Z,11.00
2019-01-18T22:21:46.916Z,12.47
2019-01-18T22:24:38.295Z,11.17
2019-01-18T22:27:15.291Z,11.47
2019-01-18T22:29:49.481Z,14.03
2019-01-18T22:32:29.192Z,11.67
2019-01-18T22:35:49.753Z,13.20
2019-01-18T22:38:36.008Z,13.33
2019-01-18T22:41:57.786Z,14.77
2019-01-18T22:44:54.251Z,12.43
2019-01-18T22:47:50.796Z,12.87
2019-01-18T22:50:42.439Z,13.03
2019-01-18T22:53:22.203Z,12.07
2019-01-18T22:56:02.258Z,14.37
2019-01-18T22:58:48.230Z,12.80
2019-01-18T23:01:37.145Z,11.03
2019-01-18T23:04:28.986Z,12.33
2019-01-18T23:07:24.062Z,19.53
2019-01-18T23:10:16.097Z,12.40
2019-01-18T23:13:09.405Z,14.43
2019-01-18T23:16:07.332Z,13.50
2019-01-18T23:19:11.262Z,12.47
2019-01-18T23:22:05.984Z,12.90
2019-01-18T23:24:40.194Z,12.60
2019-01-18T23:27:36.907Z,11.83
2019-01-18T23:30:25.330Z,12.30
2019-01-18T23:33:05.154Z,12.30
2019-01-18T23:35:57.235Z,10.77
2019-01-18T23:39:11.080Z,11.03
2019-01-18T23:42:25.326Z,13.80
2019-01-18T23:45:17.430Z,12.87
2019-01-18T23:48:08.828Z,13.60
2019-01-18T23:50:51.835Z,11.97
2019-01-18T23:53:33.931Z,12.13
2019-01-18T23:56:17.194Z,10.20
2019-01-18T23:58:54.185Z,14.20
